createdAt,value
2016-12-25T00:00:20.393Z,0
2016-12-25T00:01:29.686Z,0
2016-12-25T00:02:38.684Z,0
2016-12-25T00:03:47.981Z,0
2016-12-25T00:04:56.970Z,0
2016-12-25T00:06:06.272Z,0
2016-12-25T00:07:14.959Z,0
2016-12-25T00:08:23.634Z,0
2016-12-25T00:09:32.632Z,0
2016-12-25T00:10:42.272Z,0
2016-12-25T00:11:51.882Z,0
2016-12-25T00:13:01.480Z,0
2016-12-25T00:14:10.173Z,0
2016-12-25T00:15:19.471Z,0
2016-12-25T00:16:29.079Z,0
2016-12-25T00:17:37.797Z,0
2016-12-25T00:18:46.470Z,0
2016-12-25T00:19:55.450Z,0
2016-12-25T00:21:04.436Z,0
2016-12-25T00:22:13.715Z,0
2016-12-25T00:23:23.008Z,0
2016-12-25T00:24:32.350Z,0
2016-12-25T00:25:41.022Z,0
2016-12-25T00:26:49.704Z,0
2016-12-25T00:27:58.843Z,0
2016-12-25T00:29:07.838Z,0
2016-12-25T00:30:16.519Z,0
2016-12-25T00:31:25.505Z,0
2016-12-25T00:32:34.483Z,0
2016-12-25T00:33:43.308Z,0
2016-12-25T00:34:51.982Z,0
2016-12-25T00:36:00.662Z,0
2016-12-25T00:37:09.988Z,0
2016-12-25T00:38:18.970Z,0
2016-12-25T00:39:28.724Z,0
2016-12-25T00:40:37.742Z,0
2016-12-25T00:41:46.424Z,0
2016-12-25T00:42:55.409Z,0
2016-12-25T00:44:04.706Z,0
2016-12-25T00:45:13.539Z,0
2016-12-25T00:46:22.216Z,0
2016-12-25T00:47:30.893Z,0
2016-12-25T00:48:40.190Z,0
2016-12-25T00:49:48.862Z,0
2016-12-25T00:50:58.520Z,0
2016-12-25T00:52:07.516Z,0
2016-12-25T00:53:16.196Z,0
2016-12-25T00:54:25.188Z,0
2016-12-25T00:55:34.173Z,0
2016-12-25T00:56:42.848Z,0
2016-12-25T00:57:52.143Z,0
2016-12-25T00:59:01.128Z,0
2016-12-25T01:00:09.819Z,0
2016-12-25T01:01:18.799Z,0
2016-12-25T01:02:28.401Z,0
2016-12-25T01:03:37.084Z,0
2016-12-25T01:04:46.375Z,0
2016-12-25T01:05:55.054Z,0
2016-12-25T01:07:04.070Z,0
2016-12-25T01:08:13.047Z,0
2016-12-25T01:09:22.332Z,0
2016-12-25T01:10:31.020Z,0
2016-12-25T01:11:40.021Z,0
2016-12-25T01:12:49.001Z,0
2016-12-25T01:13:57.686Z,0
2016-12-25T01:15:06.375Z,0
2016-12-25T01:16:15.667Z,0
2016-12-25T01:17:25.268Z,0
2016-12-25T01:18:33.946Z,0
2016-12-25T01:19:43.597Z,0
2016-12-25T01:20:52.293Z,0
2016-12-25T01:22:01.008Z,0
2016-12-25T01:23:10.301Z,0
2016-12-25T01:24:18.981Z,0
2016-12-25T01:25:28.278Z,0
2016-12-25T01:26:37.890Z,0
2016-12-25T01:27:47.184Z,0
2016-12-25T01:28:56.481Z,0
2016-12-25T01:30:05.786Z,0
2016-12-25T01:31:15.232Z,0
2016-12-25T01:32:24.518Z,0
2016-12-25T01:33:33.196Z,0
2016-12-25T01:34:42.182Z,0
2016-12-25T01:35:51.161Z,0
2016-12-25T01:36:59.833Z,0
2016-12-25T01:38:08.520Z,0
2016-12-25T01:39:17.212Z,0
2016-12-25T01:40:26.512Z,0
2016-12-25T01:41:35.182Z,0
2016-12-25T01:42:44.221Z,0
2016-12-25T01:43:53.199Z,0
2016-12-25T01:45:02.200Z,0
2016-12-25T01:46:11.494Z,0
2016-12-25T01:47:20.477Z,0
2016-12-25T01:48:30.071Z,0
2016-12-25T01:49:39.058Z,0
2016-12-25T01:50:48.351Z,0
2016-12-25T01:51:57.332Z,0
2016-12-25T01:53:06.321Z,0
2016-12-25T01:54:15.353Z,0
2016-12-25T01:55:24.335Z,0
2016-12-25T01:56:33.343Z,0
2016-12-25T01:57:42.035Z,0
2016-12-25T01:58:51.026Z,0
2016-12-25T02:00:00.160Z,0
2016-12-25T02:01:08.837Z,0
2016-12-25T02:02:17.571Z,0
2016-12-25T02:03:26.565Z,0
2016-12-25T02:04:35.245Z,0
2016-12-25T02:05:43.928Z,0
2016-12-25T02:06:53.211Z,0
2016-12-25T02:08:02.812Z,0
2016-12-25T02:09:11.503Z,0
2016-12-25T02:10:20.799Z,0
2016-12-25T02:11:29.940Z,0
2016-12-25T02:12:38.933Z,0
2016-12-25T02:13:47.912Z,0
2016-12-25T02:14:56.592Z,0
2016-12-25T02:16:05.278Z,0
2016-12-25T02:17:14.900Z,0
2016-12-25T02:18:23.581Z,0
2016-12-25T02:19:32.262Z,0
2016-12-25T02:20:41.272Z,0
2016-12-25T02:21:50.262Z,0
2016-12-25T02:22:59.242Z,0
2016-12-25T02:24:07.957Z,0
2016-12-25T02:25:16.637Z,0
2016-12-25T02:26:25.927Z,0
2016-12-25T02:27:34.906Z,0
2016-12-25T02:28:44.517Z,0
2016-12-25T02:29:53.528Z,0
2016-12-25T02:31:02.531Z,0
2016-12-25T02:32:11.529Z,0
2016-12-25T02:33:20.208Z,0
2016-12-25T02:34:30.480Z,0
2016-12-25T02:35:39.159Z,0
2016-12-25T02:36:48.152Z,0
2016-12-25T02:37:56.842Z,0
2016-12-25T02:39:05.531Z,0
2016-12-25T02:40:14.304Z,0
2016-12-25T02:41:23.604Z,0
2016-12-25T02:42:32.588Z,0
2016-12-25T02:43:41.883Z,0
2016-12-25T02:44:50.908Z,0
2016-12-25T02:46:00.358Z,0
2016-12-25T02:47:09.043Z,0
2016-12-25T02:48:18.020Z,0
2016-12-25T02:49:27.028Z,0
2016-12-25T02:50:36.009Z,0
2016-12-25T02:51:45.604Z,0
2016-12-25T02:52:54.282Z,0
2016-12-25T02:54:02.960Z,0
2016-12-25T02:55:12.567Z,0
2016-12-25T02:56:21.247Z,0
2016-12-25T02:57:30.575Z,0
2016-12-25T02:58:39.864Z,0
2016-12-25T02:59:49.163Z,0
2016-12-25T03:00:58.148Z,0
2016-12-25T03:02:07.170Z,0
2016-12-25T03:03:16.465Z,0
2016-12-25T03:04:25.454Z,0
2016-12-25T03:05:34.131Z,0
2016-12-25T03:06:42.803Z,0
2016-12-25T03:07:52.398Z,0
2016-12-25T03:09:01.729Z,0
2016-12-25T03:10:10.711Z,0
2016-12-25T03:11:19.388Z,0
2016-12-25T03:12:28.386Z,0
2016-12-25T03:13:37.685Z,0
2016-12-25T03:14:46.973Z,0
2016-12-25T03:15:56.265Z,0
2016-12-25T03:17:04.944Z,0
2016-12-25T03:18:13.630Z,0
2016-12-25T03:19:23.229Z,0
2016-12-25T03:20:32.534Z,0
2016-12-25T03:21:41.838Z,0
2016-12-25T03:22:51.431Z,0
2016-12-25T03:24:00.724Z,0
2016-12-25T03:25:09.409Z,0
2016-12-25T03:26:18.512Z,0
2016-12-25T03:27:28.107Z,0
2016-12-25T03:28:36.786Z,0
2016-12-25T03:29:45.765Z,0
2016-12-25T03:30:54.777Z,0
2016-12-25T03:32:04.524Z,0
2016-12-25T03:33:13.512Z,0
2016-12-25T03:34:22.803Z,0
2016-12-25T03:35:31.807Z,0
2016-12-25T03:36:40.823Z,0
2016-12-25T03:37:49.500Z,0
2016-12-25T03:38:58.790Z,0
2016-12-25T03:40:08.083Z,0
2016-12-25T03:41:17.133Z,0
2016-12-25T03:42:26.135Z,0
2016-12-25T03:43:36.089Z,0
2016-12-25T03:44:44.768Z,0
2016-12-25T03:45:54.064Z,0
2016-12-25T03:47:03.356Z,0
2016-12-25T03:48:12.028Z,0
2016-12-25T03:49:20.711Z,0
2016-12-25T03:50:29.701Z,0
2016-12-25T03:51:38.378Z,0
2016-12-25T03:52:47.062Z,0
2016-12-25T03:53:55.744Z,0
2016-12-25T03:55:04.732Z,0
2016-12-25T03:56:13.723Z,0
2016-12-25T03:57:23.010Z,0
2016-12-25T03:58:31.997Z,0
2016-12-25T03:59:40.998Z,0
2016-12-25T04:00:50.335Z,0
2016-12-25T04:01:59.333Z,0
2016-12-25T04:03:08.020Z,0
2016-12-25T04:04:17.008Z,0
2016-12-25T04:05:26.304Z,0
2016-12-25T04:06:35.023Z,0
2016-12-25T04:07:44.316Z,0
2016-12-25T04:08:53.614Z,0
2016-12-25T04:10:02.661Z,0
2016-12-25T04:11:11.337Z,0
2016-12-25T04:12:20.022Z,0
2016-12-25T04:13:29.010Z,0
2016-12-25T04:14:38.305Z,0
2016-12-25T04:15:46.982Z,0
2016-12-25T04:16:55.653Z,0
2016-12-25T04:18:04.739Z,0
2016-12-25T04:19:14.335Z,0
2016-12-25T04:20:23.621Z,0
2016-12-25T04:21:32.915Z,0
2016-12-25T04:22:41.910Z,0
2016-12-25T04:23:50.896Z,0
2016-12-25T04:25:00.187Z,0
2016-12-25T04:26:09.485Z,0
2016-12-25T04:27:18.484Z,0
2016-12-25T04:28:27.788Z,0
2016-12-25T04:29:37.125Z,0
2016-12-25T04:30:46.415Z,0
2016-12-25T04:31:55.088Z,0
2016-12-25T04:33:04.086Z,0
2016-12-25T04:34:13.392Z,0
2016-12-25T04:35:22.749Z,0
2016-12-25T04:36:31.733Z,0
2016-12-25T04:37:40.707Z,0
2016-12-25T04:38:49.393Z,0
2016-12-25T04:39:58.685Z,0
2016-12-25T04:41:07.789Z,0
2016-12-25T04:42:16.786Z,0
2016-12-25T04:43:25.804Z,0
2016-12-25T04:44:34.787Z,0
2016-12-25T04:45:44.082Z,0
2016-12-25T04:46:53.364Z,0
2016-12-25T04:48:02.359Z,0
2016-12-25T04:49:11.342Z,0
2016-12-25T04:50:20.645Z,0
2016-12-25T04:51:29.949Z,0
2016-12-25T04:52:38.938Z,0
2016-12-25T04:53:47.925Z,0
2016-12-25T04:54:56.915Z,0
2016-12-25T04:56:06.826Z,0
2016-12-25T04:57:15.815Z,0
2016-12-25T04:58:24.843Z,0
2016-12-25T04:59:33.518Z,0
2016-12-25T05:00:42.808Z,0
2016-12-25T05:01:51.789Z,0
2016-12-25T05:03:01.389Z,0
2016-12-25T05:04:11.436Z,0
2016-12-25T05:05:20.746Z,0
2016-12-25T05:06:29.725Z,0
2016-12-25T05:07:38.411Z,0
2016-12-25T05:08:47.086Z,0
2016-12-25T05:09:56.415Z,0
2016-12-25T05:11:05.468Z,0
2016-12-25T05:12:14.772Z,0
2016-12-25T05:13:24.060Z,0
2016-12-25T05:14:32.743Z,0
2016-12-25T05:15:42.186Z,0
2016-12-25T05:16:51.479Z,0
2016-12-25T05:18:00.463Z,0
2016-12-25T05:19:09.451Z,0
2016-12-25T05:20:18.740Z,0
2016-12-25T05:21:27.535Z,0
2016-12-25T05:22:36.211Z,0
2016-12-25T05:23:45.500Z,0
2016-12-25T05:24:55.098Z,0
2016-12-25T05:26:03.777Z,0
2016-12-25T05:27:13.117Z,0
2016-12-25T05:28:21.800Z,0
2016-12-25T05:29:31.090Z,0
2016-12-25T05:30:39.770Z,0
2016-12-25T05:31:48.449Z,0
2016-12-25T05:32:57.130Z,0
2016-12-25T05:34:06.115Z,0
2016-12-25T05:35:15.111Z,0
2016-12-25T05:36:24.092Z,0
2016-12-25T05:37:33.086Z,0
2016-12-25T05:38:41.759Z,0
2016-12-25T05:39:50.752Z,0
2016-12-25T05:41:00.045Z,0
2016-12-25T05:42:09.333Z,0
2016-12-25T05:43:18.318Z,0
2016-12-25T05:44:27.912Z,0
2016-12-25T05:45:37.221Z,0
2016-12-25T05:46:46.207Z,0
2016-12-25T05:47:55.502Z,0
2016-12-25T05:49:04.812Z,0
2016-12-25T05:50:13.902Z,0
2016-12-25T05:51:22.907Z,0
2016-12-25T05:52:31.590Z,0
2016-12-25T05:53:40.576Z,0
2016-12-25T05:54:49.874Z,0
2016-12-25T05:55:59.159Z,0
2016-12-25T05:57:08.459Z,0
2016-12-25T05:58:17.148Z,0
2016-12-25T05:59:26.169Z,0
2016-12-25T06:00:35.154Z,0
2016-12-25T06:01:44.143Z,0
2016-12-25T06:02:53.428Z,0
2016-12-25T06:04:02.715Z,0
2016-12-25T06:05:12.016Z,0
2016-12-25T06:06:20.696Z,0
2016-12-25T06:07:30.465Z,0
2016-12-25T06:08:39.145Z,0
2016-12-25T06:09:48.132Z,0
2016-12-25T06:10:57.732Z,0
2016-12-25T06:12:07.044Z,0
2016-12-25T06:13:16.380Z,0
2016-12-25T06:14:25.367Z,0
2016-12-25T06:15:34.365Z,0
2016-12-25T06:16:43.100Z,0
2016-12-25T06:17:51.787Z,0
2016-12-25T06:19:01.784Z,0
2016-12-25T06:20:10.784Z,0
2016-12-25T06:21:20.069Z,0
2016-12-25T06:22:29.049Z,0
2016-12-25T06:23:37.736Z,0
2016-12-25T06:24:48.129Z,0
2016-12-25T06:25:57.109Z,0
2016-12-25T06:27:06.407Z,0
2016-12-25T06:28:15.085Z,0
2016-12-25T06:29:24.070Z,0
2016-12-25T06:30:33.711Z,0
2016-12-25T06:31:43.012Z,0
2016-12-25T06:32:52.001Z,0
2016-12-25T06:34:00.684Z,0
2016-12-25T06:35:09.976Z,0
2016-12-25T06:36:18.673Z,0
2016-12-25T06:37:27.968Z,0
2016-12-25T06:38:37.267Z,0
2016-12-25T06:39:46.258Z,0
2016-12-25T06:40:55.260Z,0
2016-12-25T06:42:04.862Z,0
2016-12-25T06:43:14.175Z,0
2016-12-25T06:44:23.175Z,0
2016-12-25T06:45:31.867Z,0
2016-12-25T06:46:40.859Z,0
2016-12-25T06:47:49.689Z,0
2016-12-25T06:48:58.675Z,0
2016-12-25T06:50:07.672Z,0
2016-12-25T06:51:16.668Z,0
2016-12-25T06:52:25.671Z,0
2016-12-25T06:53:35.323Z,0
2016-12-25T06:54:44.307Z,0
2016-12-25T06:55:53.290Z,0
2016-12-25T06:57:02.593Z,0
2016-12-25T06:58:11.578Z,0
2016-12-25T06:59:20.921Z,0
2016-12-25T07:00:30.225Z,0
2016-12-25T07:01:39.552Z,0
2016-12-25T07:02:49.159Z,0
2016-12-25T07:03:58.146Z,0
2016-12-25T07:05:06.830Z,0
2016-12-25T07:06:15.827Z,0
2016-12-25T07:07:25.764Z,0
2016-12-25T07:08:34.748Z,0
2016-12-25T07:09:43.436Z,0
2016-12-25T07:10:52.880Z,0
2016-12-25T07:12:02.493Z,0
2016-12-25T07:13:11.185Z,0
2016-12-25T07:14:19.887Z,0
2016-12-25T07:15:28.869Z,0
2016-12-25T07:16:37.706Z,0
2016-12-25T07:17:46.392Z,0
2016-12-25T07:18:55.681Z,0
2016-12-25T07:20:05.291Z,0
2016-12-25T07:21:14.292Z,0
2016-12-25T07:22:23.344Z,0
2016-12-25T07:23:32.024Z,4
2016-12-25T07:24:41.015Z,4
2016-12-25T07:25:49.695Z,4
2016-12-25T07:26:58.681Z,4
2016-12-25T07:28:07.718Z,4
2016-12-25T07:29:16.721Z,4
2016-12-25T07:30:25.724Z,4
2016-12-25T07:31:34.406Z,4
2016-12-25T07:32:43.733Z,4
2016-12-25T07:33:53.032Z,4
2016-12-25T07:35:01.722Z,4
2016-12-25T07:36:10.704Z,4
2016-12-25T07:37:19.698Z,4
2016-12-25T07:38:28.718Z,4
2016-12-25T07:39:37.552Z,4
2016-12-25T07:40:46.240Z,4
2016-12-25T07:41:54.923Z,8
2016-12-25T07:43:03.929Z,8
2016-12-25T07:44:12.603Z,8
2016-12-25T07:45:21.948Z,8
2016-12-25T07:46:31.254Z,8
2016-12-25T07:47:39.936Z,8
2016-12-25T07:48:49.239Z,12
2016-12-25T07:49:58.220Z,8
2016-12-25T07:51:06.904Z,8
2016-12-25T07:52:15.916Z,8
2016-12-25T07:53:25.207Z,12
2016-12-25T07:54:33.896Z,8
2016-12-25T07:55:42.881Z,12
2016-12-25T07:56:52.013Z,12
2016-12-25T07:58:01.007Z,16
2016-12-25T07:59:09.994Z,16
2016-12-25T08:00:18.980Z,16
2016-12-25T08:01:27.970Z,20
2016-12-25T08:02:37.108Z,20
2016-12-25T08:03:45.792Z,20
2016-12-25T08:04:54.477Z,16
2016-12-25T08:06:03.469Z,20
2016-12-25T08:07:12.463Z,20
2016-12-25T08:08:22.429Z,24
2016-12-25T08:09:31.732Z,32
2016-12-25T08:10:40.418Z,32
2016-12-25T08:11:49.151Z,32
2016-12-25T08:12:58.755Z,24
2016-12-25T08:14:08.200Z,28
2016-12-25T08:15:16.877Z,28
2016-12-25T08:16:26.779Z,32
2016-12-25T08:17:35.762Z,32
2016-12-25T08:18:44.750Z,32
2016-12-25T08:19:54.047Z,32
2016-12-25T08:21:03.038Z,36
2016-12-25T08:22:12.413Z,40
2016-12-25T08:23:21.090Z,40
2016-12-25T08:24:30.079Z,40
2016-12-25T08:25:39.065Z,44
2016-12-25T08:26:48.356Z,48
2016-12-25T08:27:57.350Z,56
2016-12-25T08:29:06.344Z,68
2016-12-25T08:30:15.968Z,68
2016-12-25T08:31:25.109Z,68
2016-12-25T08:32:34.090Z,80
2016-12-25T08:33:42.771Z,88
2016-12-25T08:34:52.068Z,88
2016-12-25T08:36:00.740Z,88
2016-12-25T08:37:09.589Z,92
2016-12-25T08:38:19.201Z,72
2016-12-25T08:39:27.886Z,68
2016-12-25T08:40:36.870Z,56
2016-12-25T08:41:46.174Z,52
2016-12-25T08:42:55.223Z,56
2016-12-25T08:44:03.934Z,56
2016-12-25T08:45:12.919Z,68
2016-12-25T08:46:22.219Z,72
2016-12-25T08:47:31.521Z,72
2016-12-25T08:48:40.647Z,68
2016-12-25T08:49:49.650Z,92
2016-12-25T08:50:58.950Z,120
2016-12-25T08:52:07.954Z,164
2016-12-25T08:53:17.247Z,108
2016-12-25T08:54:26.685Z,76
2016-12-25T08:55:35.676Z,80
2016-12-25T08:56:44.975Z,84
2016-12-25T08:57:53.983Z,108
2016-12-25T08:59:03.593Z,152
2016-12-25T09:00:12.897Z,160
2016-12-25T09:01:21.610Z,172
2016-12-25T09:02:30.296Z,156
2016-12-25T09:03:39.032Z,164
2016-12-25T09:04:48.020Z,164
2016-12-25T09:05:57.308Z,140
2016-12-25T09:07:06.300Z,144
2016-12-25T09:08:15.317Z,140
2016-12-25T09:09:24.000Z,156
2016-12-25T09:10:32.681Z,176
2016-12-25T09:11:42.018Z,228
2016-12-25T09:12:51.314Z,232
2016-12-25T09:14:00.374Z,232
2016-12-25T09:15:09.673Z,232
2016-12-25T09:16:19.283Z,184
2016-12-25T09:17:28.403Z,144
2016-12-25T09:18:37.089Z,140
2016-12-25T09:19:46.121Z,160
2016-12-25T09:20:55.429Z,244
2016-12-25T09:22:04.140Z,276
2016-12-25T09:23:12.929Z,264
2016-12-25T09:24:21.921Z,236
2016-12-25T09:25:30.912Z,280
2016-12-25T09:26:39.938Z,340
2016-12-25T09:27:48.657Z,272
2016-12-25T09:28:58.639Z,208
2016-12-25T09:30:07.634Z,188
2016-12-25T09:31:16.370Z,204
2016-12-25T09:32:25.357Z,196
2016-12-25T09:33:34.652Z,240
2016-12-25T09:34:43.699Z,276
2016-12-25T09:35:52.692Z,344
2016-12-25T09:37:01.686Z,312
2016-12-25T09:38:10.376Z,276
2016-12-25T09:39:19.726Z,308
2016-12-25T09:40:28.814Z,288
2016-12-25T09:41:37.504Z,240
2016-12-25T09:42:46.821Z,292
2016-12-25T09:43:56.428Z,268
2016-12-25T09:45:05.114Z,308
2016-12-25T09:46:14.856Z,340
2016-12-25T09:47:23.578Z,332
2016-12-25T09:48:32.881Z,228
2016-12-25T09:49:42.186Z,236
2016-12-25T09:50:51.527Z,232
2016-12-25T09:52:01.220Z,200
2016-12-25T09:53:10.245Z,224
2016-12-25T09:54:18.972Z,260
2016-12-25T09:55:27.684Z,272
2016-12-25T09:56:36.665Z,288
2016-12-25T09:57:45.815Z,292
2016-12-25T09:58:54.799Z,328
2016-12-25T10:00:03.788Z,352
2016-12-25T10:01:12.476Z,344
2016-12-25T10:02:22.162Z,364
2016-12-25T10:03:31.199Z,356
2016-12-25T10:04:40.227Z,328
2016-12-25T10:05:49.523Z,320
2016-12-25T10:06:58.529Z,336
2016-12-25T10:08:07.542Z,428
2016-12-25T10:09:16.847Z,400
2016-12-25T10:10:25.525Z,456
2016-12-25T10:11:34.824Z,460
2016-12-25T10:12:43.817Z,416
2016-12-25T10:13:52.811Z,456
2016-12-25T10:15:02.151Z,396
2016-12-25T10:16:11.145Z,396
2016-12-25T10:17:20.149Z,380
2016-12-25T10:18:29.478Z,396
2016-12-25T10:19:38.244Z,416
2016-12-25T10:20:47.415Z,408
2016-12-25T10:21:56.500Z,420
2016-12-25T10:23:05.564Z,364
2016-12-25T10:24:15.196Z,356
2016-12-25T10:25:24.495Z,344
2016-12-25T10:26:33.494Z,396
2016-12-25T10:27:42.485Z,424
2016-12-25T10:28:51.779Z,384
2016-12-25T10:30:00.797Z,380
2016-12-25T10:31:10.710Z,388
2016-12-25T10:32:19.799Z,360
2016-12-25T10:33:29.090Z,400
2016-12-25T10:34:38.696Z,388
2016-12-25T10:35:47.377Z,404
2016-12-25T10:36:56.387Z,428
2016-12-25T10:38:06.060Z,440
2016-12-25T10:39:15.353Z,432
2016-12-25T10:40:24.040Z,364
2016-12-25T10:41:33.036Z,384
2016-12-25T10:42:41.715Z,396
2016-12-25T10:43:50.875Z,416
2016-12-25T10:45:00.493Z,360
2016-12-25T10:46:09.178Z,416
2016-12-25T10:47:18.484Z,364
2016-12-25T10:48:27.530Z,396
2016-12-25T10:49:36.670Z,336
2016-12-25T10:50:45.347Z,352
2016-12-25T10:51:54.643Z,300
2016-12-25T10:53:03.968Z,304
2016-12-25T10:54:12.689Z,288
2016-12-25T10:55:21.668Z,276
2016-12-25T10:56:30.732Z,292
2016-12-25T10:57:40.046Z,248
2016-12-25T10:58:49.352Z,228
2016-12-25T10:59:58.684Z,208
2016-12-25T11:01:07.672Z,232
2016-12-25T11:02:16.967Z,256
2016-12-25T11:03:25.657Z,232
2016-12-25T11:04:34.404Z,228
2016-12-25T11:05:43.090Z,212
2016-12-25T11:06:52.188Z,200
2016-12-25T11:08:01.193Z,200
2016-12-25T11:09:10.498Z,216
2016-12-25T11:10:19.185Z,220
2016-12-25T11:11:28.790Z,212
2016-12-25T11:12:37.770Z,224
2016-12-25T11:13:47.081Z,220
2016-12-25T11:14:55.760Z,192
2016-12-25T11:16:05.419Z,192
2016-12-25T11:17:14.103Z,216
2016-12-25T11:18:23.441Z,312
2016-12-25T11:19:32.442Z,316
2016-12-25T11:20:41.441Z,316
2016-12-25T11:21:50.425Z,308
2016-12-25T11:23:00.038Z,312
2016-12-25T11:24:09.186Z,312
2016-12-25T11:25:17.894Z,332
2016-12-25T11:26:27.807Z,396
2016-12-25T11:27:36.488Z,340
2016-12-25T11:28:45.778Z,344
2016-12-25T11:29:54.778Z,396
2016-12-25T11:31:04.079Z,404
2016-12-25T11:32:13.686Z,320
2016-12-25T11:33:22.670Z,332
2016-12-25T11:34:31.982Z,396
2016-12-25T11:35:41.010Z,376
2016-12-25T11:36:50.617Z,336
2016-12-25T11:37:59.919Z,344
2016-12-25T11:39:08.620Z,296
2016-12-25T11:40:17.612Z,276
2016-12-25T11:41:27.562Z,312
2016-12-25T11:42:36.881Z,296
2016-12-25T11:43:46.186Z,284
2016-12-25T11:44:55.203Z,288
2016-12-25T11:46:04.887Z,292
2016-12-25T11:47:14.181Z,292
2016-12-25T11:48:23.477Z,300
2016-12-25T11:49:32.469Z,288
2016-12-25T11:50:41.516Z,268
2016-12-25T11:51:50.578Z,264
2016-12-25T11:52:59.753Z,308
2016-12-25T11:54:08.501Z,352
2016-12-25T11:55:18.725Z,380
2016-12-25T11:56:27.729Z,328
2016-12-25T11:57:36.423Z,292
2016-12-25T11:58:45.165Z,316
2016-12-25T11:59:54.235Z,304
2016-12-25T12:01:04.363Z,292
2016-12-25T12:02:13.360Z,272
2016-12-25T12:03:23.359Z,256
2016-12-25T12:04:32.784Z,284
2016-12-25T12:05:41.798Z,272
2016-12-25T12:06:50.853Z,232
2016-12-25T12:08:00.162Z,268
2016-12-25T12:09:09.770Z,296
2016-12-25T12:10:18.559Z,296
2016-12-25T12:11:27.864Z,272
2016-12-25T12:12:37.171Z,328
2016-12-25T12:13:46.168Z,296
2016-12-25T12:14:55.480Z,308
2016-12-25T12:16:04.924Z,292
2016-12-25T12:17:13.923Z,320
2016-12-25T12:18:22.913Z,316
2016-12-25T12:19:31.592Z,336
2016-12-25T12:20:40.889Z,268
2016-12-25T12:21:49.923Z,232
2016-12-25T12:22:59.213Z,268
2016-12-25T12:24:08.210Z,252
2016-12-25T12:25:17.522Z,220
2016-12-25T12:26:26.823Z,232
2016-12-25T12:27:35.859Z,236
2016-12-25T12:28:44.546Z,244
2016-12-25T12:29:53.864Z,224
2016-12-25T12:31:03.803Z,260
2016-12-25T12:32:13.111Z,248
2016-12-25T12:33:22.113Z,280
2016-12-25T12:34:30.790Z,256
2016-12-25T12:35:39.472Z,300
2016-12-25T12:36:48.476Z,276
2016-12-25T12:37:57.816Z,268
2016-12-25T12:39:06.647Z,272
2016-12-25T12:40:15.355Z,284
2016-12-25T12:41:24.661Z,264
2016-12-25T12:42:33.954Z,316
2016-12-25T12:43:42.943Z,328
2016-12-25T12:44:52.036Z,304
2016-12-25T12:46:01.331Z,300
2016-12-25T12:47:10.339Z,316
2016-12-25T12:48:19.345Z,316
2016-12-25T12:49:28.650Z,312
2016-12-25T12:50:37.821Z,264
2016-12-25T12:51:47.120Z,284
2016-12-25T12:52:56.110Z,288
2016-12-25T12:54:05.407Z,276
2016-12-25T12:55:14.095Z,256
2016-12-25T12:56:22.873Z,284
2016-12-25T12:57:31.899Z,264
2016-12-25T12:58:41.222Z,260
2016-12-25T12:59:50.221Z,292
2016-12-25T13:00:59.241Z,292
2016-12-25T13:02:08.583Z,292
2016-12-25T13:03:17.567Z,288
2016-12-25T13:04:26.261Z,324
2016-12-25T13:05:34.950Z,284
2016-12-25T13:06:43.946Z,276
2016-12-25T13:07:52.938Z,268
2016-12-25T13:09:02.263Z,236
2016-12-25T13:10:11.276Z,248
2016-12-25T13:11:20.882Z,240
2016-12-25T13:12:30.181Z,240
2016-12-25T13:13:39.180Z,244
2016-12-25T13:14:48.465Z,240
2016-12-25T13:15:57.464Z,236
2016-12-25T13:17:07.127Z,236
2016-12-25T13:18:15.825Z,232
2016-12-25T13:19:25.118Z,228
2016-12-25T13:20:33.798Z,228
2016-12-25T13:21:42.781Z,244
2016-12-25T13:22:52.081Z,284
2016-12-25T13:24:01.087Z,256
2016-12-25T13:25:09.924Z,240
2016-12-25T13:26:18.918Z,220
2016-12-25T13:27:28.916Z,208
2016-12-25T13:28:37.745Z,216
2016-12-25T13:29:46.885Z,240
2016-12-25T13:30:56.172Z,244
2016-12-25T13:32:05.333Z,236
2016-12-25T13:33:14.325Z,244
2016-12-25T13:34:23.038Z,216
2016-12-25T13:35:32.695Z,232
2016-12-25T13:36:42.417Z,244
2016-12-25T13:37:51.488Z,244
2016-12-25T13:39:00.868Z,260
2016-12-25T13:40:09.564Z,252
2016-12-25T13:41:18.864Z,248
2016-12-25T13:42:27.972Z,220
2016-12-25T13:43:36.707Z,220
2016-12-25T13:44:45.396Z,220
2016-12-25T13:45:54.474Z,204
2016-12-25T13:47:03.562Z,188
2016-12-25T13:48:12.699Z,216
2016-12-25T13:49:21.988Z,208
2016-12-25T13:50:31.083Z,208
2016-12-25T13:51:39.857Z,256
2016-12-25T13:52:48.861Z,268
2016-12-25T13:53:57.949Z,216
2016-12-25T13:55:07.547Z,224
2016-12-25T13:56:16.780Z,188
2016-12-25T13:57:25.524Z,180
2016-12-25T13:58:34.516Z,180
2016-12-25T13:59:44.165Z,204
2016-12-25T14:00:53.453Z,204
2016-12-25T14:02:02.164Z,228
2016-12-25T14:03:11.155Z,200
2016-12-25T14:04:20.444Z,216
2016-12-25T14:05:30.095Z,224
2016-12-25T14:06:39.088Z,180
2016-12-25T14:07:48.375Z,180
2016-12-25T14:08:57.365Z,164
2016-12-25T14:10:06.968Z,164
2016-12-25T14:11:16.263Z,168
2016-12-25T14:12:24.947Z,156
2016-12-25T14:13:34.239Z,176
2016-12-25T14:14:42.924Z,192
2016-12-25T14:15:51.608Z,204
2016-12-25T14:17:01.213Z,204
2016-12-25T14:18:09.888Z,184
2016-12-25T14:19:18.581Z,204
2016-12-25T14:20:27.635Z,204
2016-12-25T14:21:36.933Z,196
2016-12-25T14:22:45.961Z,224
2016-12-25T14:23:54.949Z,208
2016-12-25T14:25:03.675Z,252
2016-12-25T14:26:12.356Z,212
2016-12-25T14:27:21.042Z,152
2016-12-25T14:28:30.379Z,152
2016-12-25T14:29:39.992Z,160
2016-12-25T14:30:49.601Z,152
2016-12-25T14:31:58.624Z,136
2016-12-25T14:33:07.308Z,144
2016-12-25T14:34:16.081Z,136
2016-12-25T14:35:24.754Z,124
2016-12-25T14:36:34.361Z,124
2016-12-25T14:37:43.360Z,120
2016-12-25T14:38:52.037Z,128
2016-12-25T14:40:01.376Z,124
2016-12-25T14:41:10.671Z,124
2016-12-25T14:42:19.971Z,120
2016-12-25T14:43:28.649Z,124
2016-12-25T14:44:37.335Z,128
2016-12-25T14:45:46.174Z,128
2016-12-25T14:46:54.907Z,116
2016-12-25T14:48:03.891Z,124
2016-12-25T14:49:12.574Z,116
2016-12-25T14:50:22.178Z,112
2016-12-25T14:51:30.859Z,92
2016-12-25T14:52:39.862Z,100
2016-12-25T14:53:49.161Z,108
2016-12-25T14:54:58.155Z,108
2016-12-25T14:56:07.446Z,96
2016-12-25T14:57:16.237Z,80
2016-12-25T14:58:25.230Z,84
2016-12-25T14:59:33.913Z,80
2016-12-25T15:00:43.209Z,76
2016-12-25T15:01:52.196Z,64
2016-12-25T15:03:01.232Z,64
2016-12-25T15:04:10.836Z,68
2016-12-25T15:05:20.161Z,64
2016-12-25T15:06:29.160Z,60
2016-12-25T15:07:38.458Z,64
2016-12-25T15:08:47.498Z,52
2016-12-25T15:09:56.794Z,44
2016-12-25T15:11:05.841Z,48
2016-12-25T15:12:15.141Z,44
2016-12-25T15:13:24.141Z,36
2016-12-25T15:14:33.135Z,36
2016-12-25T15:15:42.424Z,36
2016-12-25T15:16:51.109Z,32
2016-12-25T15:18:00.403Z,24
2016-12-25T15:19:09.392Z,24
2016-12-25T15:20:18.458Z,20
2016-12-25T15:21:28.055Z,16
2016-12-25T15:22:37.043Z,16
2016-12-25T15:23:46.649Z,16
2016-12-25T15:24:55.671Z,12
2016-12-25T15:26:04.696Z,12
2016-12-25T15:27:13.381Z,8
2016-12-25T15:28:22.675Z,12
2016-12-25T15:29:31.671Z,8
2016-12-25T15:30:40.356Z,8
2016-12-25T15:31:49.699Z,8
2016-12-25T15:32:58.690Z,8
2016-12-25T15:34:07.678Z,8
2016-12-25T15:35:16.981Z,4
2016-12-25T15:36:26.286Z,4
2016-12-25T15:37:35.142Z,4
2016-12-25T15:38:44.440Z,4
2016-12-25T15:39:53.440Z,4
2016-12-25T15:41:02.736Z,4
2016-12-25T15:42:12.033Z,4
2016-12-25T15:43:21.815Z,0
2016-12-25T15:44:30.802Z,4
2016-12-25T15:45:39.803Z,4
2016-12-25T15:46:48.812Z,4
2016-12-25T15:47:57.802Z,0
2016-12-25T15:49:06.794Z,0
2016-12-25T15:50:15.465Z,0
2016-12-25T15:51:24.458Z,0
2016-12-25T15:52:33.486Z,0
2016-12-25T15:53:42.476Z,0
2016-12-25T15:54:51.926Z,0
2016-12-25T15:56:01.029Z,0
2016-12-25T15:57:10.197Z,0
2016-12-25T15:58:19.195Z,0
2016-12-25T15:59:28.697Z,0
2016-12-25T16:00:38.373Z,0
2016-12-25T16:01:47.673Z,0
2016-12-25T16:02:56.668Z,0
2016-12-25T16:04:05.976Z,0
2016-12-25T16:05:14.665Z,4
2016-12-25T16:06:23.728Z,4
2016-12-25T16:07:33.027Z,4
2016-12-25T16:08:41.715Z,0
2016-12-25T16:09:50.393Z,0
2016-12-25T16:10:59.389Z,4
2016-12-25T16:12:08.373Z,4
2016-12-25T16:13:17.674Z,4
2016-12-25T16:14:26.666Z,4
2016-12-25T16:15:35.662Z,4
2016-12-25T16:16:44.987Z,4
2016-12-25T16:17:53.771Z,4
2016-12-25T16:19:02.760Z,4
2016-12-25T16:20:11.755Z,4
2016-12-25T16:21:21.057Z,4
2016-12-25T16:22:30.350Z,4
2016-12-25T16:23:40.020Z,4
2016-12-25T16:24:49.020Z,0
2016-12-25T16:25:57.703Z,0
2016-12-25T16:27:07.054Z,0
2016-12-25T16:28:15.762Z,0
2016-12-25T16:29:24.773Z,4
2016-12-25T16:30:33.847Z,4
2016-12-25T16:31:42.836Z,0